Time;durP1;ratioP1;P1;durP2;ratioP2;P2;SDS_P1;SDS_P2;PMS_P1;PMS_P2;Temp;Humidity;BMP_temperature;BMP_pressure;BME280_temperature;BME280_humidity;BME280_pressure;Samples;Min_cycle;Max_cycle;Signal;HPM_P1;HPM_P2
2021/12/06 00:01:10;;;;;;;;;;;23.60;55.80;;;;;;5095539;28;19924;-57
2021/12/06 00:03:43;;;;;;;;;;;23.60;55.80;;;;;;5095966;28;20329;-56
2021/12/06 00:06:10;;;;;;;;;;;23.60;55.90;;;;;;5095463;28;19932;-48
2021/12/06 00:08:38;;;;;;;;;;;23.60;55.90;;;;;;5095802;28;19924;-56
2021/12/06 00:11:09;;;;;;;;;;;23.60;55.90;;;;;;5095768;28;20291;-55
2021/12/06 00:13:37;;;;;;;;;;;23.60;55.90;;;;;;5093169;28;19978;-58
2021/12/06 00:16:08;;;;;;;;;;;23.50;55.80;;;;;;5095685;28;20306;-58
2021/12/06 00:18:35;;;;;;;;;;;23.50;55.80;;;;;;5095675;28;20342;-54
2021/12/06 00:21:03;;;;;;;;;;;23.50;55.80;;;;;;5095264;28;19931;-54
2021/12/06 00:23:30;;;;;;;;;;;23.50;55.90;;;;;;5095190;28;19924;-58
2021/12/06 00:25:58;;;;;;;;;;;23.50;55.90;;;;;;5095400;28;19974;-56
2021/12/06 00:28:26;;;;;;;;;;;23.50;55.90;;;;;;5074617;28;20352;-58
2021/12/06 00:30:54;;;;;;;;;;;23.50;55.80;;;;;;5095297;28;20014;-57
2021/12/06 00:33:22;;;;;;;;;;;23.50;55.90;;;;;;5095314;28;20411;-57
2021/12/06 00:35:49;;;;;;;;;;;23.50;55.90;;;;;;5094971;28;19931;-57
2021/12/06 00:38:17;;;;;;;;;;;23.50;55.90;;;;;;5094171;28;19924;-57
2021/12/06 00:40:47;;;;;;;;;;;23.50;55.90;;;;;;5077013;28;19924;-52
2021/12/06 00:43:14;;;;;;;;;;;23.50;55.90;;;;;;5092628;28;20283;-52
2021/12/06 00:45:42;;;;;;;;;;;23.50;55.90;;;;;;5076814;28;19971;-53
2021/12/06 00:48:09;;;;;;;;;;;23.50;55.90;;;;;;5094752;28;19932;-53
2021/12/06 00:50:38;;;;;;;;;;;23.50;56.50;;;;;;5095281;28;19928;-52
2021/12/06 00:53:05;;;;;;;;;;;23.50;56.00;;;;;;5094480;28;19977;-54
2021/12/06 00:55:33;;;;;;;;;;;23.50;56.00;;;;;;5094960;28;20002;-54
2021/12/06 00:58:00;;;;;;;;;;;23.50;56.00;;;;;;5085181;28;19947;-54
2021/12/06 01:00:30;;;;;;;;;;;23.50;55.90;;;;;;5074151;28;19931;-53
2021/12/06 01:02:57;;;;;;;;;;;23.50;56.00;;;;;;5074232;28;19924;-58
2021/12/06 01:05:25;;;;;;;;;;;23.50;56.00;;;;;;5074437;28;19934;-56
2021/12/06 01:07:54;;;;;;;;;;;23.50;56.00;;;;;;5074326;28;19925;-54
2021/12/06 01:10:22;;;;;;;;;;;23.50;56.00;;;;;;5056465;28;19964;-56
2021/12/06 01:12:54;;;;;;;;;;;23.40;55.90;;;;;;5073422;28;19928;-57
2021/12/06 01:15:22;;;;;;;;;;;23.40;56.00;;;;;;5074033;28;19970;-55
2021/12/06 01:17:49;;;;;;;;;;;23.40;56.00;;;;;;5074015;28;19931;-54
2021/12/06 01:20:21;;;;;;;;;;;23.40;56.00;;;;;;5073954;28;19930;-57
2021/12/06 01:22:57;;;;;;;;;;;23.40;56.00;;;;;;5056439;28;19933;-57
2021/12/06 01:25:33;;;;;;;;;;;23.40;56.00;;;;;;5073953;28;19928;-56
2021/12/06 01:41:34;;;;;;;;;;;23.40;56.00;;;;;;5073789;28;20273;-59
2021/12/06 01:44:14;;;;;;;;;;;23.30;56.00;;;;;;5072976;28;20314;-53
2021/12/06 01:46:52;;;;;;;;;;;23.40;56.10;;;;;;5073603;28;19964;-55
2021/12/06 01:49:21;;;;;;;;;;;23.30;56.00;;;;;;5073526;28;19925;-55
2021/12/06 01:51:49;;;;;;;;;;;23.30;56.10;;;;;;5073666;28;19925;-59
2021/12/06 01:54:16;;;;;;;;;;;23.30;56.10;;;;;;5073486;28;19931;-57
2021/12/06 01:56:44;;;;;;;;;;;23.30;56.10;;;;;;5056166;28;20295;-56
2021/12/06 01:59:12;;;;;;;;;;;23.30;56.10;;;;;;5072259;28;19925;-55
2021/12/06 02:01:39;;;;;;;;;;;23.30;56.10;;;;;;5073543;28;20402;-49
2021/12/06 02:04:07;;;;;;;;;;;23.30;56.10;;;;;;5073799;28;20299;-57
2021/12/06 02:06:34;;;;;;;;;;;23.30;56.10;;;;;;5073414;28;19924;-56
2021/12/06 02:09:02;;;;;;;;;;;23.30;56.10;;;;;;5073442;28;19924;-58
2021/12/06 02:11:32;;;;;;;;;;;23.30;56.10;;;;;;5073438;28;19930;-52
2021/12/06 02:14:24;;;;;;;;;;;23.30;56.10;;;;;;5054760;28;19924;-57
2021/12/06 02:17:16;;;;;;;;;;;23.30;56.10;;;;;;5059318;28;19931;-54
2021/12/06 02:19:48;;;;;;;;;;;23.30;56.10;;;;;;5073730;28;19924;-52
2021/12/06 02:22:17;;;;;;;;;;;23.30;56.10;;;;;;5073468;28;19929;-50
2021/12/06 02:24:45;;;;;;;;;;;23.30;56.10;;;;;;5073277;28;19933;-51
2021/12/06 02:27:13;;;;;;;;;;;23.30;56.10;;;;;;5073238;28;20023;-54
2021/12/06 02:29:42;;;;;;;;;;;23.30;56.10;;;;;;5072365;28;19932;-54
2021/12/06 02:32:11;;;;;;;;;;;23.30;56.20;;;;;;5073237;28;20023;-55
2021/12/06 02:34:40;;;;;;;;;;;23.30;56.10;;;;;;5073463;28;20294;-49
2021/12/06 02:37:09;;;;;;;;;;;23.30;56.20;;;;;;5074328;28;19938;-57
2021/12/06 02:39:37;;;;;;;;;;;23.30;56.10;;;;;;5073478;28;19931;-54
2021/12/06 02:42:06;;;;;;;;;;;23.30;56.20;;;;;;5073185;28;19925;-56
2021/12/06 02:44:33;;;;;;;;;;;23.30;56.20;;;;;;5072439;28;19925;-58
2021/12/06 02:47:00;;;;;;;;;;;23.30;56.10;;;;;;5073011;28;20371;-53
2021/12/06 02:49:27;;;;;;;;;;;23.30;56.10;;;;;;5089499;28;19924;-55
2021/12/06 02:51:54;;;;;;;;;;;23.30;56.20;;;;;;5073059;28;19932;-52
2021/12/06 02:54:23;;;;;;;;;;;23.20;56.00;;;;;;5073146;28;19925;-56
2021/12/06 02:59:22;;;;;;;;;;;23.20;56.10;;;;;;5072042;28;19924;-57
2021/12/06 03:01:57;;;;;;;;;;;23.20;56.10;;;;;;5074382;28;19986;-58
2021/12/06 03:04:24;;;;;;;;;;;23.20;56.10;;;;;;5076854;28;20023;-56
2021/12/06 03:06:54;;;;;;;;;;;23.20;56.10;;;;;;5076407;28;19924;-55
2021/12/06 03:09:23;;;;;;;;;;;23.20;56.10;;;;;;5076978;28;19928;-56
2021/12/06 03:11:57;;;;;;;;;;;23.20;56.10;;;;;;5076700;28;19931;-51
2021/12/06 03:14:26;;;;;;;;;;;23.20;56.10;;;;;;5075420;28;20402;-52
2021/12/06 03:16:56;;;;;;;;;;;23.20;56.10;;;;;;5076278;28;19925;-58
2021/12/06 03:19:23;;;;;;;;;;;23.20;56.10;;;;;;5076220;28;19925;-58
2021/12/06 03:21:51;;;;;;;;;;;23.20;56.10;;;;;;5076526;28;20015;-58
2021/12/06 03:24:18;;;;;;;;;;;23.20;56.10;;;;;;5075968;28;20376;-56
2021/12/06 03:26:46;;;;;;;;;;;23.20;56.10;;;;;;5076352;28;19928;-58
2021/12/06 03:29:13;;;;;;;;;;;23.20;56.20;;;;;;5074875;28;19939;-56
2021/12/06 03:31:41;;;;;;;;;;;23.20;56.20;;;;;;5076015;28;19925;-54
2021/12/06 03:34:09;;;;;;;;;;;23.20;56.20;;;;;;5076293;28;20015;-52
2021/12/06 03:36:37;;;;;;;;;;;23.20;56.20;;;;;;5075910;28;19931;-51
2021/12/06 03:39:06;;;;;;;;;;;23.20;56.10;;;;;;5076190;28;19925;-50
2021/12/06 03:41:33;;;;;;;;;;;23.10;56.10;;;;;;5076051;28;19925;-58
2021/12/06 03:44:00;;;;;;;;;;;23.10;56.10;;;;;;5057524;28;19925;-56
2021/12/06 03:46:29;;;;;;;;;;;23.10;56.10;;;;;;5075660;28;19931;-52
2021/12/06 03:48:56;;;;;;;;;;;23.10;56.10;;;;;;5075671;28;19924;-58
2021/12/06 03:51:23;;;;;;;;;;;23.10;56.10;;;;;;5075681;28;19970;-53
2021/12/06 03:53:50;;;;;;;;;;;23.10;56.10;;;;;;5075424;28;19931;-57
2021/12/06 03:56:17;;;;;;;;;;;23.20;56.20;;;;;;5075865;28;20008;-49
2021/12/06 03:58:46;;;;;;;;;;;23.10;56.10;;;;;;5058116;28;19931;-50
2021/12/06 04:01:14;;;;;;;;;;;23.10;56.10;;;;;;5074585;28;19931;-57
2021/12/06 04:03:42;;;;;;;;;;;23.10;56.20;;;;;;5075700;28;19946;-57
2021/12/06 04:06:09;;;;;;;;;;;23.10;56.20;;;;;;5058027;28;19925;-56
2021/12/06 04:08:37;;;;;;;;;;;23.10;56.20;;;;;;5075512;28;19928;-54
2021/12/06 04:11:04;;;;;;;;;;;23.10;56.20;;;;;;5075563;28;20269;-55
2021/12/06 04:13:31;;;;;;;;;;;23.10;56.20;;;;;;5074337;28;19925;-57
2021/12/06 04:15:59;;;;;;;;;;;23.10;56.20;;;;;;5057052;28;19925;-58
2021/12/06 04:18:27;;;;;;;;;;;23.10;56.20;;;;;;5075393;28;20023;-55
2021/12/06 04:20:54;;;;;;;;;;;23.10;56.20;;;;;;5075360;28;20293;-57
2021/12/06 04:23:21;;;;;;;;;;;23.10;56.10;;;;;;5075212;28;19932;-56
2021/12/06 04:25:48;;;;;;;;;;;23.10;56.20;;;;;;5075270;28;19929;-54
2021/12/06 04:28:18;;;;;;;;;;;23.10;56.20;;;;;;5075160;28;19928;-55
2021/12/06 04:30:46;;;;;;;;;;;23.10;56.20;;;;;;5074468;28;20406;-56
2021/12/06 04:33:14;;;;;;;;;;;23.10;56.20;;;;;;5057187;28;20028;-56
2021/12/06 04:35:42;;;;;;;;;;;23.10;56.20;;;;;;5075101;28;19924;-53
2021/12/06 04:38:10;;;;;;;;;;;23.10;56.20;;;;;;5074749;28;20395;-52
2021/12/06 04:40:37;;;;;;;;;;;23.10;56.20;;;;;;5074642;28;19925;-55
2021/12/06 04:43:04;;;;;;;;;;;23.10;56.20;;;;;;5074649;28;19924;-58
2021/12/06 04:45:33;;;;;;;;;;;23.00;56.10;;;;;;5073760;28;19990;-52
2021/12/06 04:48:00;;;;;;;;;;;23.00;56.10;;;;;;5074804;28;20295;-49
2021/12/06 04:50:30;;;;;;;;;;;23.10;56.20;;;;;;5074802;28;20337;-54
2021/12/06 04:53:00;;;;;;;;;;;23.00;56.10;;;;;;5074257;28;20019;-56
2021/12/06 04:55:30;;;;;;;;;;;23.00;56.10;;;;;;5074718;28;20287;-52
2021/12/06 04:57:57;;;;;;;;;;;23.00;56.10;;;;;;5074149;28;19924;-50
2021/12/06 05:00:24;;;;;;;;;;;23.00;56.10;;;;;;5073367;28;20041;-55
2021/12/06 05:02:51;;;;;;;;;;;23.00;56.10;;;;;;5074239;28;19924;-56
2021/12/06 05:05:21;;;;;;;;;;;23.00;56.10;;;;;;5074509;28;19954;-52
2021/12/06 05:07:54;;;;;;;;;;;23.00;56.20;;;;;;5074391;28;19931;-52
2021/12/06 05:10:21;;;;;;;;;;;23.00;56.20;;;;;;5074510;28;20035;-56
2021/12/06 05:12:48;;;;;;;;;;;23.00;56.20;;;;;;5074409;28;19924;-50
2021/12/06 05:15:16;;;;;;;;;;;23.00;56.20;;;;;;5073002;28;19928;-49
2021/12/06 05:17:44;;;;;;;;;;;23.00;56.20;;;;;;5074018;28;19925;-52
2021/12/06 05:20:12;;;;;;;;;;;23.00;56.20;;;;;;5074005;28;19956;-53
2021/12/06 05:22:40;;;;;;;;;;;23.00;56.20;;;;;;5073812;28;19925;-53
2021/12/06 05:25:07;;;;;;;;;;;23.00;56.20;;;;;;5073572;28;19925;-59
2021/12/06 05:27:35;;;;;;;;;;;23.00;56.10;;;;;;5073855;28;20394;-56
2021/12/06 05:30:04;;;;;;;;;;;23.00;56.10;;;;;;5072954;28;19931;-54
2021/12/06 05:32:34;;;;;;;;;;;23.00;56.10;;;;;;5073847;28;19924;-52
2021/12/06 05:35:07;;;;;;;;;;;23.00;56.10;;;;;;5073815;28;20016;-50
2021/12/06 05:37:36;;;;;;;;;;;23.00;56.10;;;;;;5073836;28;19924;-51
2021/12/06 05:40:05;;;;;;;;;;;23.00;56.10;;;;;;5074079;28;20347;-57
2021/12/06 05:42:32;;;;;;;;;;;23.00;56.10;;;;;;5073733;28;19925;-49
2021/12/06 05:45:00;;;;;;;;;;;23.00;56.10;;;;;;5073675;28;19929;-58
2021/12/06 05:47:27;;;;;;;;;;;23.00;56.20;;;;;;5055178;28;19935;-51
2021/12/06 05:49:54;;;;;;;;;;;23.00;56.20;;;;;;5073955;28;19932;-55
2021/12/06 05:52:21;;;;;;;;;;;23.00;56.20;;;;;;5073781;28;20269;-50
2021/12/06 05:54:48;;;;;;;;;;;23.00;56.20;;;;;;5073842;28;19924;-50
2021/12/06 05:57:16;;;;;;;;;;;23.00;56.10;;;;;;5073447;28;20295;-57
2021/12/06 05:59:43;;;;;;;;;;;23.00;56.10;;;;;;5073672;28;19924;-51
2021/12/06 06:02:11;;;;;;;;;;;23.00;56.10;;;;;;5072515;28;19924;-52
2021/12/06 06:04:39;;;;;;;;;;;23.00;56.10;;;;;;5073845;28;19925;-56
2021/12/06 06:07:07;;;;;;;;;;;23.00;56.20;;;;;;5073396;28;19960;-53
2021/12/06 06:09:34;;;;;;;;;;;23.00;56.10;;;;;;5073779;28;19955;-51
2021/12/06 06:12:03;;;;;;;;;;;23.00;56.10;;;;;;5073779;28;19986;-56
2021/12/06 06:14:31;;;;;;;;;;;23.00;56.10;;;;;;5074597;28;19925;-55
2021/12/06 06:17:07;;;;;;;;;;;23.00;56.30;;;;;;5072780;28;19954;-48
2021/12/06 06:19:36;;;;;;;;;;;23.00;56.10;;;;;;5073728;28;19931;-54
2021/12/06 06:22:03;;;;;;;;;;;23.00;56.10;;;;;;5073310;28;19924;-52
2021/12/06 06:24:30;;;;;;;;;;;23.00;56.10;;;;;;5073465;28;19956;-57
2021/12/06 06:26:57;;;;;;;;;;;23.00;56.10;;;;;;5073213;28;19925;-56
2021/12/06 06:29:24;;;;;;;;;;;23.00;56.10;;;;;;5073473;28;20341;-55
2021/12/06 06:31:52;;;;;;;;;;;23.00;56.10;;;;;;5072821;28;19955;-50
2021/12/06 06:34:19;;;;;;;;;;;23.00;56.10;;;;;;5073258;28;19931;-54
2021/12/06 06:36:46;;;;;;;;;;;23.00;56.10;;;;;;5074600;28;19948;-55
2021/12/06 06:39:13;;;;;;;;;;;23.00;56.10;;;;;;5077270;28;19925;-58
2021/12/06 06:41:41;;;;;;;;;;;23.00;56.10;;;;;;5077148;28;19924;-57
2021/12/06 06:44:08;;;;;;;;;;;23.00;56.10;;;;;;5076625;28;20383;-58
2021/12/06 06:46:35;;;;;;;;;;;23.00;56.10;;;;;;5076295;28;19931;-50
2021/12/06 06:49:02;;;;;;;;;;;23.00;56.10;;;;;;5076678;28;19924;-49
2021/12/06 06:51:30;;;;;;;;;;;23.00;56.10;;;;;;5076770;28;19964;-58
2021/12/06 06:53:57;;;;;;;;;;;23.00;56.10;;;;;;5076798;28;19928;-57
2021/12/06 06:56:24;;;;;;;;;;;23.00;56.00;;;;;;5058932;28;19928;-49
2021/12/06 06:58:51;;;;;;;;;;;23.00;56.00;;;;;;5076452;28;20380;-54
2021/12/06 07:01:19;;;;;;;;;;;23.00;56.00;;;;;;5075826;28;21027;-58
2021/12/06 07:03:50;;;;;;;;;;;23.00;56.00;;;;;;5076753;28;20105;-54
2021/12/06 07:06:17;;;;;;;;;;;23.00;56.00;;;;;;5060035;28;19974;-57
2021/12/06 07:08:44;;;;;;;;;;;23.00;56.50;;;;;;5076377;28;19967;-53
2021/12/06 07:11:11;;;;;;;;;;;23.00;55.90;;;;;;5059016;28;20310;-54
2021/12/06 07:13:39;;;;;;;;;;;23.00;55.90;;;;;;5076218;28;20445;-56
2021/12/06 07:16:07;;;;;;;;;;;23.00;55.90;;;;;;5075394;28;20107;-58
2021/12/06 07:18:34;;;;;;;;;;;23.00;55.90;;;;;;5076574;28;19928;-56
2021/12/06 07:21:02;;;;;;;;;;;23.00;55.90;;;;;;5076514;28;19962;-51
2021/12/06 07:23:29;;;;;;;;;;;23.00;55.90;;;;;;5075975;28;19925;-50
2021/12/06 07:25:57;;;;;;;;;;;23.00;55.80;;;;;;5076056;28;19928;-55
2021/12/06 07:28:24;;;;;;;;;;;23.00;55.80;;;;;;5076019;28;19978;-54
2021/12/06 07:30:51;;;;;;;;;;;23.00;55.80;;;;;;5076013;28;19925;-52
2021/12/06 07:33:18;;;;;;;;;;;23.00;55.80;;;;;;5058195;28;20380;-56
2021/12/06 07:35:45;;;;;;;;;;;23.00;55.80;;;;;;5042325;28;19924;-53
2021/12/06 07:38:13;;;;;;;;;;;23.10;55.90;;;;;;5078332;28;19979;-58
2021/12/06 07:40:40;;;;;;;;;;;23.10;55.80;;;;;;5075875;28;19930;-54
2021/12/06 07:43:07;;;;;;;;;;;23.10;55.80;;;;;;5076289;28;20268;-58
2021/12/06 07:45:34;;;;;;;;;;;23.10;55.70;;;;;;5075851;28;20015;-53
2021/12/06 07:48:02;;;;;;;;;;;23.10;55.70;;;;;;5057517;28;19931;-57
2021/12/06 07:50:29;;;;;;;;;;;23.10;55.70;;;;;;5058321;28;19924;-55
2021/12/06 07:52:56;;;;;;;;;;;23.10;55.70;;;;;;5058138;28;20044;-56
2021/12/06 07:55:26;;;;;;;;;;;23.10;55.70;;;;;;5058258;28;19925;-54
2021/12/06 07:57:56;;;;;;;;;;;23.10;55.60;;;;;;5075423;28;20015;-50
2021/12/06 08:00:26;;;;;;;;;;;23.10;55.60;;;;;;5075367;28;19974;-56
2021/12/06 08:02:53;;;;;;;;;;;23.10;55.60;;;;;;5075185;28;19925;-54
2021/12/06 08:05:30;;;;;;;;;;;23.10;55.60;;;;;;5075655;28;20376;-54
2021/12/06 08:08:08;;;;;;;;;;;23.10;55.50;;;;;;5075582;28;20364;-53
2021/12/06 08:10:37;;;;;;;;;;;23.20;55.60;;;;;;5075382;28;19924;-53
2021/12/06 08:13:05;;;;;;;;;;;23.10;55.50;;;;;;5075246;28;19932;-54
2021/12/06 08:15:33;;;;;;;;;;;23.10;55.50;;;;;;5075206;28;20348;-58
2021/12/06 08:18:00;;;;;;;;;;;23.20;55.50;;;;;;5074633;28;19930;-58
2021/12/06 08:20:27;;;;;;;;;;;23.20;55.50;;;;;;5057753;28;19935;-52
2021/12/06 08:22:54;;;;;;;;;;;23.20;56.00;;;;;;5075686;28;19924;-52
2021/12/06 08:25:22;;;;;;;;;;;23.20;55.40;;;;;;5075857;28;20019;-51
2021/12/06 08:27:49;;;;;;;;;;;23.20;55.40;;;;;;5074907;28;19925;-58
2021/12/06 08:30:21;;;;;;;;;;;23.20;55.30;;;;;;5074783;28;19928;-56
2021/12/06 08:32:50;;;;;;;;;;;23.20;55.30;;;;;;5074825;28;20018;-54
2021/12/06 08:35:31;;;;;;;;;;;23.20;55.30;;;;;;5075081;28;19964;-57
2021/12/06 08:37:59;;;;;;;;;;;23.30;55.30;;;;;;5074680;28;19932;-56
2021/12/06 08:40:28;;;;;;;;;;;23.30;55.30;;;;;;5074694;28;19928;-53
2021/12/06 08:42:55;;;;;;;;;;;23.30;55.30;;;;;;5074575;28;19924;-48
2021/12/06 08:45:23;;;;;;;;;;;23.30;55.30;;;;;;5075015;28;20371;-56
2021/12/06 08:47:50;;;;;;;;;;;23.30;55.20;;;;;;5074117;28;19947;-50
2021/12/06 08:50:19;;;;;;;;;;;23.30;55.20;;;;;;5074609;28;19971;-53
2021/12/06 08:52:46;;;;;;;;;;;23.30;55.20;;;;;;5074740;28;19932;-57
2021/12/06 08:55:14;;;;;;;;;;;23.30;55.20;;;;;;5074975;28;19978;-50
2021/12/06 08:57:41;;;;;;;;;;;23.30;55.10;;;;;;5074362;28;20284;-50
2021/12/06 09:00:17;;;;;;;;;;;23.30;55.10;;;;;;5073856;28;19947;-53
2021/12/06 09:02:44;;;;;;;;;;;23.30;55.10;;;;;;5073533;28;19925;-52
2021/12/06 09:05:22;;;;;;;;;;;23.40;55.20;;;;;;5074284;28;20287;-51
2021/12/06 09:07:50;;;;;;;;;;;23.30;55.00;;;;;;5074189;28;20405;-59
2021/12/06 09:10:17;;;;;;;;;;;23.40;55.10;;;;;;5074165;28;19979;-56
2021/12/06 09:12:44;;;;;;;;;;;23.40;55.10;;;;;;5056470;28;19928;-58
2021/12/06 09:15:15;;;;;;;;;;;23.40;55.10;;;;;;5074041;28;19924;-53
2021/12/06 09:17:47;;;;;;;;;;;23.40;55.10;;;;;;5056163;28;20051;-51
2021/12/06 09:20:16;;;;;;;;;;;23.40;55.10;;;;;;5074001;28;19930;-50
2021/12/06 09:22:45;;;;;;;;;;;23.40;55.10;;;;;;5073935;28;19924;-53
2021/12/06 09:25:13;;;;;;;;;;;23.40;55.00;;;;;;5073863;28;19925;-50
2021/12/06 09:27:40;;;;;;;;;;;23.40;55.00;;;;;;5074104;28;19956;-54
2021/12/06 09:30:09;;;;;;;;;;;23.40;55.60;;;;;;5073610;28;19929;-57
2021/12/06 09:32:36;;;;;;;;;;;23.40;55.00;;;;;;5073009;28;19924;-54
2021/12/06 09:35:04;;;;;;;;;;;23.50;55.00;;;;;;5073780;28;20299;-54
2021/12/06 09:37:32;;;;;;;;;;;23.50;55.00;;;;;;5073686;28;19925;-50
2021/12/06 09:39:59;;;;;;;;;;;23.50;54.90;;;;;;5056274;28;19956;-52
2021/12/06 09:42:32;;;;;;;;;;;23.50;54.80;;;;;;5073913;28;20273;-58
2021/12/06 09:45:00;;;;;;;;;;;23.50;54.80;;;;;;5073718;28;19925;-56
2021/12/06 09:47:31;;;;;;;;;;;23.50;54.70;;;;;;5073593;28;19924;-52
2021/12/06 09:49:58;;;;;;;;;;;23.60;54.70;;;;;;5072793;28;19931;-53
2021/12/06 09:52:25;;;;;;;;;;;23.60;54.70;;;;;;5073502;28;19947;-53
2021/12/06 09:54:52;;;;;;;;;;;23.60;54.70;;;;;;5073696;28;19924;-53
2021/12/06 09:57:19;;;;;;;;;;;23.60;54.70;;;;;;5073414;28;20371;-57
2021/12/06 09:59:47;;;;;;;;;;;23.60;54.70;;;;;;5073746;28;20356;-58
2021/12/06 10:02:15;;;;;;;;;;;23.60;54.70;;;;;;5074207;28;19970;-57
2021/12/06 10:04:46;;;;;;;;;;;23.60;54.70;;;;;;5073087;28;19955;-51
2021/12/06 10:07:13;;;;;;;;;;;23.60;54.70;;;;;;5073443;28;19928;-52
2021/12/06 10:09:42;;;;;;;;;;;23.60;54.70;;;;;;5073905;28;19924;-53
2021/12/06 10:12:09;;;;;;;;;;;23.60;54.70;;;;;;5076930;28;19931;-54
2021/12/06 10:14:37;;;;;;;;;;;23.60;54.60;;;;;;5077535;28;20019;-57
2021/12/06 10:17:09;;;;;;;;;;;23.70;54.70;;;;;;5077823;28;19978;-52
2021/12/06 10:19:36;;;;;;;;;;;23.70;54.60;;;;;;5076860;28;19924;-56
2021/12/06 10:22:04;;;;;;;;;;;23.70;54.60;;;;;;5077328;28;20015;-53
2021/12/06 10:24:32;;;;;;;;;;;23.70;54.60;;;;;;5077415;28;19924;-53
2021/12/06 10:27:17;;;;;;;;;;;23.70;54.60;;;;;;5077277;28;19924;-50
2021/12/06 10:30:07;;;;;;;;;;;23.70;54.70;;;;;;5077053;28;20018;-55
2021/12/06 10:32:36;;;;;;;;;;;23.70;54.70;;;;;;5069815;28;19925;-57
2021/12/06 10:35:05;;;;;;;;;;;23.70;54.60;;;;;;5076992;28;19947;-58
2021/12/06 10:37:32;;;;;;;;;;;23.70;54.60;;;;;;5059940;28;19925;-53
2021/12/06 10:40:00;;;;;;;;;;;23.70;54.70;;;;;;5077284;28;19924;-56
2021/12/06 10:42:28;;;;;;;;;;;23.70;54.60;;;;;;5076826;28;19928;-59
2021/12/06 10:44:59;;;;;;;;;;;23.70;54.70;;;;;;5077063;28;19931;-58
2021/12/06 10:47:26;;;;;;;;;;;23.70;54.70;;;;;;5077137;28;19925;-57
2021/12/06 10:49:54;;;;;;;;;;;23.70;54.70;;;;;;5076334;28;20016;-57
2021/12/06 10:52:26;;;;;;;;;;;23.70;54.70;;;;;;5076793;28;19930;-53
2021/12/06 10:54:54;;;;;;;;;;;23.70;54.60;;;;;;5076616;28;19982;-48
2021/12/06 10:57:21;;;;;;;;;;;23.70;54.60;;;;;;5076694;28;19924;-54
2021/12/06 10:59:48;;;;;;;;;;;23.70;54.60;;;;;;5058922;28;19969;-56
2021/12/06 11:02:15;;;;;;;;;;;23.70;54.50;;;;;;5076411;28;20398;-53
2021/12/06 11:04:43;;;;;;;;;;;23.70;54.50;;;;;;5075635;28;20000;-57
2021/12/06 11:07:10;;;;;;;;;;;23.70;54.50;;;;;;5076802;28;19924;-55
2021/12/06 11:09:39;;;;;;;;;;;23.80;54.60;;;;;;5059213;28;19932;-56
2021/12/06 11:12:07;;;;;;;;;;;23.70;54.50;;;;;;5076713;28;20108;-57
2021/12/06 11:14:37;;;;;;;;;;;23.80;54.60;;;;;;5076355;28;19925;-56
2021/12/06 11:17:08;;;;;;;;;;;23.80;54.50;;;;;;5076505;28;20405;-55
2021/12/06 11:19:36;;;;;;;;;;;23.80;54.50;;;;;;5075471;28;20387;-58
2021/12/06 11:22:03;;;;;;;;;;;23.80;54.50;;;;;;5075560;28;20019;-58
2021/12/06 11:24:30;;;;;;;;;;;23.80;54.50;;;;;;5076294;28;19925;-53
2021/12/06 11:26:57;;;;;;;;;;;23.80;54.50;;;;;;5076421;28;20022;-56
2021/12/06 11:29:33;;;;;;;;;;;23.80;54.50;;;;;;5075877;28;20023;-56
2021/12/06 11:32:00;;;;;;;;;;;23.80;54.50;;;;;;5076304;28;20283;-52
2021/12/06 11:34:30;;;;;;;;;;;23.80;54.50;;;;;;5075203;28;20391;-54
2021/12/06 11:36:57;;;;;;;;;;;23.80;54.50;;;;;;5075920;28;19928;-58
2021/12/06 11:39:25;;;;;;;;;;;23.80;54.50;;;;;;5076681;28;20280;-52
2021/12/06 11:41:54;;;;;;;;;;;23.80;54.50;;;;;;5076162;28;20318;-51
2021/12/06 11:44:29;;;;;;;;;;;23.90;54.50;;;;;;5076072;28;20306;-55
2021/12/06 11:46:58;;;;;;;;;;;23.80;54.50;;;;;;5058405;28;20335;-55
2021/12/06 11:49:27;;;;;;;;;;;23.90;54.50;;;;;;5077811;28;19928;-51
2021/12/06 11:51:54;;;;;;;;;;;23.90;54.50;;;;;;5078402;28;19924;-52
2021/12/06 11:54:21;;;;;;;;;;;23.90;54.50;;;;;;5095675;28;19924;-56
2021/12/06 11:56:49;;;;;;;;;;;23.90;54.50;;;;;;5095592;28;20389;-58
2021/12/06 11:59:18;;;;;;;;;;;23.90;54.50;;;;;;5095491;28;19924;-54
2021/12/06 12:01:49;;;;;;;;;;;23.90;54.50;;;;;;5095678;28;19924;-56
2021/12/06 12:04:18;;;;;;;;;;;23.90;54.50;;;;;;5093224;28;19927;-59
2021/12/06 12:06:56;;;;;;;;;;;23.90;54.50;;;;;;5095655;28;19971;-57
2021/12/06 12:09:25;;;;;;;;;;;23.90;54.50;;;;;;5095488;28;20027;-58
2021/12/06 12:12:06;;;;;;;;;;;23.90;54.50;;;;;;5095854;28;19967;-57
2021/12/06 12:14:33;;;;;;;;;;;23.90;54.50;;;;;;5095782;28;20283;-56
2021/12/06 12:17:01;;;;;;;;;;;23.90;54.50;;;;;;5095410;28;19933;-51
2021/12/06 12:19:28;;;;;;;;;;;23.90;54.50;;;;;;5092982;28;19950;-53
2021/12/06 12:21:56;;;;;;;;;;;23.90;54.50;;;;;;5095684;28;20260;-56
2021/12/06 12:24:23;;;;;;;;;;;23.90;54.50;;;;;;5095408;28;19930;-49
2021/12/06 12:26:57;;;;;;;;;;;23.90;54.50;;;;;;5095581;28;20334;-58
2021/12/06 12:29:27;;;;;;;;;;;23.90;54.50;;;;;;5095568;28;20048;-51
2021/12/06 12:31:56;;;;;;;;;;;23.90;54.50;;;;;;5095338;28;20423;-51
2021/12/06 12:34:25;;;;;;;;;;;23.90;54.50;;;;;;5076494;28;19993;-55
2021/12/06 12:36:52;;;;;;;;;;;23.90;54.70;;;;;;5093243;28;19924;-54
2021/12/06 12:39:20;;;;;;;;;;;23.90;54.60;;;;;;5077065;28;19924;-54
2021/12/06 12:41:48;;;;;;;;;;;23.90;54.60;;;;;;5077045;28;20387;-57
2021/12/06 12:44:16;;;;;;;;;;;23.90;54.60;;;;;;5095195;28;19924;-53
2021/12/06 12:46:45;;;;;;;;;;;23.90;54.60;;;;;;5095154;28;19924;-57
2021/12/06 12:49:17;;;;;;;;;;;23.90;54.60;;;;;;5094648;28;20019;-58
2021/12/06 12:51:49;;;;;;;;;;;23.90;54.60;;;;;;5075871;28;19924;-54
2021/12/06 12:54:18;;;;;;;;;;;23.90;54.60;;;;;;5074284;28;19924;-59
2021/12/06 12:56:57;;;;;;;;;;;23.90;54.70;;;;;;5174375;27;19915;-59
2021/12/06 12:59:29;;;;;;;;;;;23.90;54.70;;;;;;5173826;27;19946;-56
2021/12/06 13:02:17;;;;;;;;;;;23.90;54.70;;;;;;5173546;27;19923;-56
2021/12/06 13:05:00;;;;;;;;;;;23.90;54.70;;;;;;5173404;27;19931;-55
2021/12/06 13:07:34;;;;;;;;;;;23.90;54.70;;;;;;5152928;27;20332;-51
2021/12/06 13:10:20;;;;;;;;;;;23.90;54.70;;;;;;5152906;27;19930;-47
2021/12/06 13:12:54;;;;;;;;;;;23.90;54.70;;;;;;5152518;27;19930;-55
2021/12/06 13:15:22;;;;;;;;;;;23.90;54.70;;;;;;5152391;27;19929;-49
2021/12/06 13:17:51;;;;;;;;;;;23.90;54.70;;;;;;5134329;27;19923;-55
2021/12/06 13:20:20;;;;;;;;;;;23.90;54.70;;;;;;5151309;27;19927;-58
2021/12/06 13:22:54;;;;;;;;;;;23.90;54.70;;;;;;5152426;27;19923;-56
2021/12/06 13:25:25;;;;;;;;;;;23.90;54.70;;;;;;5152611;27;19946;-60
2021/12/06 13:27:55;;;;;;;;;;;23.90;54.70;;;;;;5152630;27;19927;-53
2021/12/06 13:30:26;;;;;;;;;;;23.90;54.70;;;;;;5152038;27;19929;-48
2021/12/06 13:32:55;;;;;;;;;;;23.90;54.70;;;;;;5152301;27;19927;-57
2021/12/06 13:35:35;;;;;;;;;;;23.90;54.70;;;;;;5151032;27;19927;-54
2021/12/06 13:38:04;;;;;;;;;;;23.90;54.70;;;;;;5151947;27;20378;-54
2021/12/06 13:40:32;;;;;;;;;;;23.90;54.80;;;;;;5152248;27;20321;-55
2021/12/06 13:43:26;;;;;;;;;;;23.90;54.80;;;;;;5151886;27;19968;-54
2021/12/06 13:45:54;;;;;;;;;;;23.90;54.80;;;;;;5148367;27;19927;-51
2021/12/06 13:48:33;;;;;;;;;;;23.90;54.80;;;;;;5152165;27;19923;-53
2021/12/06 13:51:20;;;;;;;;;;;23.90;54.90;;;;;;5151266;27;20010;-58
2021/12/06 13:53:54;;;;;;;;;;;23.80;54.80;;;;;;5151539;27;19923;-58
2021/12/06 13:56:36;;;;;;;;;;;23.90;54.90;;;;;;5151440;27;19923;-51
2021/12/06 13:59:04;;;;;;;;;;;23.80;54.80;;;;;;5151866;27;19930;-56
2021/12/06 14:01:34;;;;;;;;;;;23.80;55.40;;;;;;5151584;27;19923;-48
2021/12/06 14:04:03;;;;;;;;;;;23.80;54.90;;;;;;5151826;27;19923;-56
2021/12/06 14:06:50;;;;;;;;;;;23.80;54.90;;;;;;5146705;27;19923;-58
2021/12/06 14:09:18;;;;;;;;;;;23.80;54.90;;;;;;5137534;27;19929;-53
2021/12/06 14:11:51;;;;;;;;;;;23.80;54.90;;;;;;5138387;27;19934;-53
2021/12/06 14:14:18;;;;;;;;;;;23.80;55.00;;;;;;5119426;27;19930;-52
2021/12/06 14:16:45;;;;;;;;;;;23.80;55.00;;;;;;5119310;27;19928;-55
2021/12/06 14:19:12;;;;;;;;;;;23.80;55.00;;;;;;5137802;27;20386;-50
2021/12/06 14:21:40;;;;;;;;;;;23.80;55.10;;;;;;5136750;27;20121;-50
2021/12/06 14:24:07;;;;;;;;;;;23.80;55.10;;;;;;5137133;27;19976;-47
2021/12/06 14:26:41;;;;;;;;;;;23.70;55.00;;;;;;5137619;27;19947;-56
2021/12/06 14:29:12;;;;;;;;;;;23.80;55.10;;;;;;5137141;27;19931;-51
2021/12/06 14:31:40;;;;;;;;;;;23.70;55.00;;;;;;5137204;27;19929;-50
2021/12/06 14:34:07;;;;;;;;;;;23.70;55.00;;;;;;5137174;27;20382;-56
2021/12/06 14:36:34;;;;;;;;;;;23.70;55.00;;;;;;5136369;27;20279;-55
2021/12/06 14:39:11;;;;;;;;;;;23.70;55.00;;;;;;5137349;27;19931;-51
2021/12/06 14:42:05;;;;;;;;;;;23.70;55.10;;;;;;5137009;27;20014;-52
2021/12/06 14:44:31;;;;;;;;;;;23.70;55.70;;;;;;5033864;28;19932;-56